Time;durP1;ratioP1;P1;durP2;ratioP2;P2;SDS_P1;SDS_P2;PMS_P1;PMS_P2;Temp;Humidity;BMP_temperature;BMP_pressure;BME280_temperature;BME280_humidity;BME280_pressure;Samples;Min_cycle;Max_cycle;Signal;HPM_P1;HPM_P2
2021/11/20 00:00:57;;;;;;;17.08;9.75;;;6.60;99.90;;;;;;5029355;28;20187;-76
2021/11/20 00:03:23;;;;;;;15.93;10.35;;;6.70;99.90;;;;;;5029264;28;20563;-75
2021/11/20 00:05:51;;;;;;;17.23;11.07;;;6.70;99.90;;;;;;5029900;28;20191;-75
2021/11/20 00:08:17;;;;;;;15.00;10.25;;;6.90;99.90;;;;;;5028170;28;20183;-76
2021/11/20 00:10:45;;;;;;;16.63;11.20;;;6.80;99.90;;;;;;5029170;28;20665;-76
2021/11/20 00:13:11;;;;;;;15.30;10.35;;;6.80;99.90;;;;;;5029747;28;20320;-76
2021/11/20 00:15:42;;;;;;;14.95;10.02;;;6.70;99.90;;;;;;5031534;28;20218;-76
2021/11/20 00:18:08;;;;;;;13.52;9.90;;;6.60;99.90;;;;;;5029382;28;20581;-76
2021/11/20 00:20:38;;;;;;;18.17;10.57;;;6.80;99.90;;;;;;5029331;28;20691;-76
2021/11/20 00:23:04;;;;;;;15.60;9.65;;;6.70;99.90;;;;;;5031143;28;20376;-76
2021/11/20 00:25:41;;;;;;;15.90;10.80;;;6.80;99.90;;;;;;5031014;28;20231;-76
2021/11/20 00:28:07;;;;;;;20.50;12.00;;;6.90;99.90;;;;;;5031282;28;20251;-76
2021/11/20 00:30:51;;;;;;;21.27;12.70;;;6.90;99.90;;;;;;5031211;28;20226;-76
2021/11/20 00:33:18;;;;;;;19.60;12.38;;;6.50;99.90;;;;;;5029381;28;20187;-75
2021/11/20 00:35:45;;;;;;;23.10;14.63;;;6.60;99.90;;;;;;5031305;28;20297;-76
2021/11/20 00:38:12;;;;;;;17.80;11.73;;;6.60;99.90;;;;;;5030916;28;20664;-76
2021/11/20 00:40:43;;;;;;;18.27;12.43;;;6.50;99.90;;;;;;5030914;28;20248;-76
2021/11/20 00:43:10;;;;;;;19.38;12.57;;;6.50;99.90;;;;;;5030220;28;20273;-76
2021/11/20 00:45:36;;;;;;;18.95;12.63;;;6.70;99.90;;;;;;5030983;28;20194;-75
2021/11/20 00:48:03;;;;;;;20.50;13.80;;;6.60;99.90;;;;;;5030888;28;20548;-76
2021/11/20 00:50:29;;;;;;;22.17;13.07;;;6.60;99.90;;;;;;5030565;28;20998;-76
2021/11/20 00:52:55;;;;;;;19.40;11.27;;;6.60;99.90;;;;;;5029729;28;20191;-76
2021/11/20 00:55:29;;;;;;;20.10;12.70;;;6.50;99.90;;;;;;5031081;28;20179;-76
2021/11/20 00:57:56;;;;;;;19.23;11.15;;;6.90;99.90;;;;;;5030939;28;20673;-75
2021/11/20 01:00:27;;;;;;;18.67;11.40;;;6.60;99.90;;;;;;5030380;28;20218;-76
2021/11/20 01:02:53;;;;;;;17.38;12.52;;;6.90;99.90;;;;;;5012603;28;20715;-76
2021/11/20 01:05:19;;;;;;;20.03;11.77;;;6.90;99.90;;;;;;5030374;28;20191;-75
2021/11/20 01:07:46;;;;;;;14.60;11.50;;;7.00;99.90;;;;;;5030631;28;20191;-75
2021/11/20 01:10:15;;;;;;;18.23;11.73;;;6.80;99.90;;;;;;5030153;28;20230;-76
2021/11/20 01:12:41;;;;;;;18.33;12.18;;;6.80;99.90;;;;;;5030280;28;20212;-75
2021/11/20 01:15:12;;;;;;;16.03;10.77;;;6.90;99.90;;;;;;5029892;28;20179;-76
2021/11/20 01:17:37;;;;;;;19.92;11.95;;;6.50;99.90;;;;;;5030026;28;20210;-76
2021/11/20 01:20:06;;;;;;;16.47;10.60;;;6.60;99.90;;;;;;5030503;28;20543;-76
2021/11/20 01:22:32;;;;;;;16.80;11.60;;;6.50;99.90;;;;;;5029826;28;20247;-76
2021/11/20 01:24:58;;;;;;;16.37;11.90;;;6.40;99.90;;;;;;5028010;28;20560;-76
2021/11/20 01:27:24;;;;;;;17.20;12.10;;;6.50;99.90;;;;;;5030327;28;20464;-76
2021/11/20 01:29:51;;;;;;;19.10;12.65;;;6.40;99.90;;;;;;5012440;28;20826;-76
2021/11/20 01:32:17;;;;;;;19.55;13.30;;;6.70;99.90;;;;;;5029646;28;20183;-76
2021/11/20 01:34:43;;;;;;;19.80;12.85;;;6.80;99.90;;;;;;5012047;28;20194;-76
2021/11/20 01:37:09;;;;;;;18.23;11.90;;;6.90;99.90;;;;;;5030085;28;20258;-75
2021/11/20 01:39:37;;;;;;;22.55;12.98;;;6.50;99.90;;;;;;5029978;28;20187;-75
2021/11/20 01:42:31;;;;;;;19.65;13.60;;;6.60;99.90;;;;;;5012018;28;20190;-76
2021/11/20 01:45:20;;;;;;;18.05;12.60;;;6.60;99.90;;;;;;5029884;28;20267;-76
2021/11/20 01:48:21;;;;;;;20.60;12.35;;;6.80;99.90;;;;;;5029597;28;20187;-75
2021/11/20 01:50:53;;;;;;;19.67;12.25;;;6.50;99.90;;;;;;5011974;28;20606;-76
2021/11/20 01:53:25;;;;;;;16.13;11.55;;;6.60;99.90;;;;;;5029574;28;20175;-76
2021/11/20 01:56:00;;;;;;;19.67;12.80;;;6.50;99.90;;;;;;5029471;28;20649;-75
2021/11/20 01:58:49;;;;;;;17.80;11.40;;;6.50;99.90;;;;;;5029873;28;20239;-76
2021/11/20 02:01:53;;;;;;;20.20;12.60;;;6.40;99.90;;;;;;5029552;28;20557;-75
2021/11/20 02:04:49;;;;;;;14.20;10.98;;;6.50;99.90;;;;;;4981435;28;20680;-76
2021/11/20 02:07:26;;;;;;;15.73;10.70;;;6.90;99.90;;;;;;5028816;28;20226;-75
2021/11/20 02:10:17;;;;;;;18.05;10.80;;;6.50;99.90;;;;;;5029404;28;20726;-76
2021/11/20 02:12:50;;;;;;;17.17;12.52;;;6.70;99.90;;;;;;5028724;28;20190;-76
2021/11/20 02:15:41;;;;;;;16.92;10.90;;;6.60;99.90;;;;;;5030111;28;20651;-76
2021/11/20 02:18:09;;;;;;;17.77;11.57;;;6.50;99.90;;;;;;4983310;28;20245;-76
2021/11/20 02:20:46;;;;;;;18.17;12.10;;;6.50;99.90;;;;;;5029305;28;20187;-76
2021/11/20 02:23:12;;;;;;;17.15;12.80;;;6.60;99.90;;;;;;5026114;28;20183;-75
2021/11/20 02:25:37;;;;;;;17.43;10.37;;;6.70;99.90;;;;;;5029159;28;20198;-76
2021/11/20 02:28:04;;;;;;;18.10;12.10;;;6.50;99.90;;;;;;5037170;28;20181;-75
2021/11/20 02:30:32;;;;;;;19.35;12.32;;;6.60;99.90;;;;;;5033766;28;20310;-76
2021/11/20 02:33:02;;;;;;;16.48;12.02;;;6.60;99.90;;;;;;5040764;28;20230;-75
2021/11/20 02:35:56;;;;;;;19.20;12.35;;;6.60;99.90;;;;;;5034740;28;20191;-77
2021/11/20 02:38:28;;;;;;;18.80;11.98;;;6.70;99.90;;;;;;5029151;28;20191;-75
2021/11/20 02:40:55;;;;;;;19.50;12.07;;;6.80;99.90;;;;;;5029354;28;20187;-75
2021/11/20 02:43:22;;;;;;;19.00;12.73;;;6.50;99.90;;;;;;5030069;28;20190;-75
2021/11/20 02:45:52;;;;;;;18.85;12.75;;;6.50;99.90;;;;;;5030038;28;20194;-76
2021/11/20 02:48:18;;;;;;;18.60;12.13;;;6.80;99.90;;;;;;5029048;28;20183;-76
2021/11/20 02:51:07;;;;;;;20.05;11.77;;;6.70;99.90;;;;;;5028349;28;20219;-75
2021/11/20 02:53:40;;;;;;;19.90;12.30;;;6.50;99.90;;;;;;5018433;28;20195;-76
2021/11/20 02:56:10;;;;;;;22.13;13.45;;;6.70;99.90;;;;;;5028132;28;20188;-76
2021/11/20 02:58:36;;;;;;;19.63;13.05;;;6.80;99.90;;;;;;5028582;28;20183;-76
2021/11/20 03:01:08;;;;;;;24.73;13.05;;;6.70;99.90;;;;;;5028759;28;20203;-76
2021/11/20 03:03:34;;;;;;;21.40;12.52;;;6.70;99.90;;;;;;5028786;28;20246;-75
2021/11/20 03:05:59;;;;;;;21.77;13.80;;;6.60;99.90;;;;;;5029476;28;20832;-76
2021/11/20 03:08:25;;;;;;;23.93;12.97;;;6.90;99.90;;;;;;5028800;28;20580;-75
2021/11/20 03:10:51;;;;;;;23.13;14.83;;;6.90;99.90;;;;;;5032137;28;20219;-76
2021/11/20 03:13:17;;;;;;;23.67;14.07;;;6.60;99.90;;;;;;5028625;28;20190;-75
2021/11/20 03:15:44;;;;;;;23.73;13.70;;;6.50;99.90;;;;;;5028209;28;20775;-76
2021/11/20 03:18:10;;;;;;;25.17;13.60;;;6.50;99.90;;;;;;5028875;28;20230;-76
2021/11/20 03:20:36;;;;;;;25.87;13.90;;;6.40;99.90;;;;;;5028783;28;20645;-75
2021/11/20 03:23:18;;;;;;;26.48;13.88;;;6.70;99.90;;;;;;5028996;28;20468;-76
2021/11/20 03:25:44;;;;;;;24.23;13.30;;;6.80;99.90;;;;;;5028402;28;20190;-75
2021/11/20 03:28:10;;;;;;;28.60;15.10;;;6.90;99.90;;;;;;5028127;28;20648;-76
2021/11/20 03:30:36;;;;;;;24.90;13.63;;;6.50;99.90;;;;;;5028582;28;20574;-76
2021/11/20 03:33:02;;;;;;;26.95;13.88;;;6.50;99.90;;;;;;5030617;28;20190;-76
2021/11/20 03:35:28;;;;;;;19.80;11.63;;;6.80;99.90;;;;;;5032424;28;20566;-75
2021/11/20 03:37:53;;;;;;;23.20;13.13;;;6.60;99.90;;;;;;5032483;28;20512;-76
2021/11/20 03:40:20;;;;;;;26.63;13.80;;;6.50;99.90;;;;;;5032254;28;20365;-76
2021/11/20 03:42:46;;;;;;;22.20;12.80;;;6.50;99.90;;;;;;5031746;28;20191;-75
2021/11/20 03:45:13;;;;;;;23.45;13.32;;;6.50;99.90;;;;;;5033049;28;20187;-75
2021/11/20 03:47:38;;;;;;;22.13;12.18;;;6.60;99.90;;;;;;5031776;28;20602;-76
2021/11/20 03:50:09;;;;;;;24.53;12.83;;;6.60;99.90;;;;;;5031045;28;20211;-76
2021/11/20 03:52:35;;;;;;;24.05;13.32;;;6.50;99.90;;;;;;5030566;28;20194;-75
2021/11/20 03:55:01;;;;;;;24.63;13.10;;;6.80;99.90;;;;;;5032415;28;20660;-75
2021/11/20 03:57:27;;;;;;;22.03;12.03;;;6.70;99.90;;;;;;5030400;28;20187;-75
2021/11/20 03:59:52;;;;;;;22.30;11.90;;;6.80;99.90;;;;;;5032295;28;20188;-75
2021/11/20 04:02:18;;;;;;;21.73;13.60;;;6.70;99.90;;;;;;5032074;28;20552;-75
2021/11/20 04:04:44;;;;;;;23.43;12.67;;;6.70;99.90;;;;;;5031532;28;20211;-75
2021/11/20 04:07:09;;;;;;;22.20;13.10;;;7.00;99.90;;;;;;5030848;28;20606;-75
2021/11/20 04:09:35;;;;;;;20.10;11.40;;;6.60;99.90;;;;;;5031695;28;20803;-76
2021/11/20 04:12:00;;;;;;;19.80;12.07;;;6.60;99.90;;;;;;5031683;28;20232;-75
2021/11/20 04:14:27;;;;;;;21.30;12.27;;;6.60;99.90;;;;;;5031856;28;20218;-75
2021/11/20 04:16:54;;;;;;;21.20;12.00;;;6.60;99.90;;;;;;5031253;28;20206;-76
2021/11/20 04:19:20;;;;;;;21.00;12.18;;;6.50;99.90;;;;;;5032118;28;20225;-75
2021/11/20 04:21:47;;;;;;;20.17;11.95;;;6.60;99.90;;;;;;5031690;28;20284;-76
2021/11/20 04:24:14;;;;;;;20.80;11.55;;;6.50;99.90;;;;;;5031946;28;20222;-76
2021/11/20 04:26:40;;;;;;;22.25;11.65;;;6.70;99.90;;;;;;5031725;28;20576;-76
2021/11/20 04:29:06;;;;;;;27.80;12.60;;;6.80;99.90;;;;;;5031392;28;20238;-76
2021/11/20 04:31:32;;;;;;;17.60;11.47;;;6.70;99.90;;;;;;5031382;28;20501;-76
2021/11/20 04:33:57;;;;;;;19.55;11.95;;;6.60;99.90;;;;;;5031708;28;20183;-76
2021/11/20 04:36:23;;;;;;;17.80;10.53;;;6.50;99.90;;;;;;5031293;28;20245;-75
2021/11/20 04:38:49;;;;;;;19.73;11.70;;;6.60;99.90;;;;;;5031403;28;20765;-76
2021/11/20 04:41:16;;;;;;;14.10;10.00;;;6.60;99.90;;;;;;5031522;28;20461;-76
2021/11/20 04:43:43;;;;;;;16.20;10.50;;;6.90;99.90;;;;;;5030711;28;20188;-76
2021/11/20 04:46:10;;;;;;;20.13;10.73;;;6.70;99.90;;;;;;5030538;28;20217;-76
2021/11/20 04:48:35;;;;;;;17.45;10.90;;;6.90;99.90;;;;;;5031171;28;20215;-76
2021/11/20 04:51:01;;;;;;;18.43;10.63;;;6.50;99.90;;;;;;5031148;28;20249;-76
2021/11/20 04:53:29;;;;;;;19.10;10.93;;;6.60;99.90;;;;;;5030646;28;20199;-76
2021/11/20 04:55:57;;;;;;;17.48;10.40;;;6.50;99.90;;;;;;5030243;28;20180;-76
2021/11/20 04:58:22;;;;;;;21.65;11.13;;;6.70;99.90;;;;;;5031738;28;20556;-76
2021/11/20 05:00:50;;;;;;;20.00;10.70;;;6.70;99.90;;;;;;5031725;28;20183;-76
2021/11/20 05:03:17;;;;;;;18.67;10.63;;;6.60;99.90;;;;;;5030707;28;20195;-76
2021/11/20 05:05:45;;;;;;;15.48;10.50;;;6.70;99.90;;;;;;5030568;28;20191;-76
2021/11/20 05:08:10;;;;;;;19.33;11.18;;;6.60;99.90;;;;;;5030606;28;20190;-76
2021/11/20 05:10:39;;;;;;;17.70;9.80;;;6.80;99.90;;;;;;5030361;28;20215;-76
2021/11/20 05:13:05;;;;;;;16.35;9.80;;;6.60;99.90;;;;;;5030622;28;20661;-75
2021/11/20 05:15:32;;;;;;;21.75;12.20;;;6.60;99.90;;;;;;5030229;28;20180;-76
2021/11/20 05:17:58;;;;;;;17.15;11.07;;;6.60;99.90;;;;;;5030473;28;20279;-76
2021/11/20 05:20:24;;;;;;;17.10;10.10;;;6.70;99.90;;;;;;5028331;28;20191;-76
2021/11/20 05:22:50;;;;;;;17.23;10.13;;;6.70;99.90;;;;;;5030196;28;20199;-76
2021/11/20 05:25:19;;;;;;;17.43;11.03;;;6.60;99.90;;;;;;5030075;28;20230;-76
2021/11/20 05:27:46;;;;;;;18.30;10.00;;;6.70;99.90;;;;;;5029849;28;20209;-76
2021/11/20 05:30:18;;;;;;;20.30;10.85;;;6.50;99.90;;;;;;5030368;28;20615;-76
2021/11/20 05:32:46;;;;;;;16.42;10.32;;;6.70;99.90;;;;;;5030008;28;20175;-75
2021/11/20 05:35:13;;;;;;;15.93;10.43;;;6.50;99.90;;;;;;5029973;28;20233;-75
2021/11/20 05:37:39;;;;;;;18.48;10.40;;;6.90;99.90;;;;;;5029524;28;20194;-76
2021/11/20 05:40:07;;;;;;;18.37;10.50;;;6.90;99.90;;;;;;5030170;28;20183;-74
2021/11/20 05:42:32;;;;;;;13.57;8.88;;;7.00;99.90;;;;;;5029357;28;20262;-75
2021/11/20 05:44:58;;;;;;;15.37;9.30;;;6.70;99.90;;;;;;5030109;28;20181;-76
2021/11/20 05:47:23;;;;;;;14.73;9.30;;;6.80;99.90;;;;;;5029179;28;20206;-75
2021/11/20 05:49:49;;;;;;;13.83;9.40;;;6.80;99.90;;;;;;5029485;28;20691;-75
2021/11/20 05:52:16;;;;;;;14.90;9.60;;;6.70;99.90;;;;;;5029601;28;20649;-75
2021/11/20 05:54:43;;;;;;;18.33;9.20;;;6.90;99.90;;;;;;5028939;28;20184;-76
2021/11/20 05:57:08;;;;;;;15.48;9.20;;;7.00;99.90;;;;;;5027984;28;20210;-75
2021/11/20 05:59:34;;;;;;;18.00;10.23;;;6.70;99.90;;;;;;5029339;28;20221;-75
2021/11/20 06:02:00;;;;;;;17.90;10.87;;;6.80;99.90;;;;;;5030042;28;20863;-75
2021/11/20 06:04:29;;;;;;;14.20;9.10;;;6.80;99.90;;;;;;5029915;28;20422;-76
2021/11/20 06:06:55;;;;;;;14.35;9.25;;;6.70;99.90;;;;;;5028624;28;20213;-75
2021/11/20 06:09:20;;;;;;;16.03;9.67;;;6.80;99.90;;;;;;5027027;28;20211;-75
2021/11/20 06:11:46;;;;;;;14.37;8.60;;;6.60;99.90;;;;;;5029127;28;20187;-75
2021/11/20 06:14:11;;;;;;;18.93;10.47;;;6.80;99.90;;;;;;5027516;28;20206;-75
2021/11/20 06:16:37;;;;;;;15.07;10.60;;;6.80;99.90;;;;;;5029024;28;20214;-75
2021/11/20 06:19:04;;;;;;;21.07;11.87;;;6.80;99.90;;;;;;5029992;28;20195;-74
2021/11/20 06:21:30;;;;;;;24.15;15.00;;;6.80;99.90;;;;;;5029827;28;20426;-76
2021/11/20 06:23:55;;;;;;;23.08;14.95;;;6.80;99.90;;;;;;5028465;28;20280;-75
2021/11/20 06:26:21;;;;;;;16.83;12.27;;;7.00;99.90;;;;;;5026646;28;20187;-74
2021/11/20 06:28:47;;;;;;;18.13;11.03;;;6.80;99.90;;;;;;5025723;28;20242;-74
2021/11/20 06:31:13;;;;;;;17.17;10.77;;;6.90;99.90;;;;;;5027583;28;20215;-76
2021/11/20 06:33:40;;;;;;;19.20;11.60;;;7.00;99.90;;;;;;5023698;28;20432;-75
2021/11/20 06:36:05;;;;;;;16.90;10.55;;;6.80;99.90;;;;;;5026939;28;20194;-75
2021/11/20 06:38:31;;;;;;;19.10;11.30;;;6.80;99.90;;;;;;5024774;28;20299;-75
2021/11/20 06:41:00;;;;;;;17.85;10.77;;;6.70;99.90;;;;;;5026851;28;20725;-75
2021/11/20 06:43:27;;;;;;;13.07;9.32;;;6.80;99.90;;;;;;5026285;28;20570;-75
2021/11/20 06:45:55;;;;;;;14.23;9.65;;;6.70;99.90;;;;;;5028850;28;20692;-75
2021/11/20 06:48:22;;;;;;;13.07;9.10;;;6.90;99.90;;;;;;5028669;28;20232;-75
2021/11/20 06:50:49;;;;;;;18.67;10.13;;;6.70;99.90;;;;;;5028861;28;20615;-75
2021/11/20 06:53:17;;;;;;;18.50;10.30;;;6.80;99.90;;;;;;5029118;28;20583;-75
2021/11/20 06:55:43;;;;;;;18.65;10.55;;;6.80;99.90;;;;;;5029121;28;20183;-75
2021/11/20 07:00:44;;;;;;;21.00;11.75;;;7.00;99.90;;;;;;5028008;28;20274;-75
2021/11/20 07:03:13;;;;;;;14.55;10.20;;;6.90;99.90;;;;;;5028130;28;20202;-75
2021/11/20 07:05:45;;;;;;;15.93;10.80;;;7.10;99.90;;;;;;5028498;28;20767;-75
2021/11/20 07:08:13;;;;;;;15.27;9.77;;;6.90;99.90;;;;;;5028037;28;20179;-75
2021/11/20 07:10:39;;;;;;;14.50;8.85;;;7.30;99.90;;;;;;5027852;28;20249;-75
2021/11/20 07:13:05;;;;;;;17.17;10.35;;;6.90;99.90;;;;;;5027767;28;20183;-75
2021/11/20 07:15:32;;;;;;;17.23;9.50;;;7.10;99.90;;;;;;5028220;28;20210;-74
2021/11/20 07:17:58;;;;;;;15.70;9.18;;;7.30;99.90;;;;;;5027974;28;20191;-74
2021/11/20 07:20:29;;;;;;;14.52;10.23;;;7.30;99.90;;;;;;5028589;28;20724;-74
2021/11/20 07:22:55;;;;;;;13.23;9.32;;;7.20;99.90;;;;;;5028027;28;20187;-75
2021/11/20 07:25:24;;;;;;;18.00;9.60;;;7.10;99.90;;;;;;5027820;28;20368;-74
2021/11/20 07:27:50;;;;;;;13.00;9.75;;;7.40;99.90;;;;;;5027634;28;20438;-74
2021/11/20 07:30:17;;;;;;;17.10;10.80;;;7.40;99.90;;;;;;5028062;28;20222;-74
2021/11/20 07:32:43;;;;;;;15.52;9.10;;;7.20;99.90;;;;;;5028087;28;20422;-75
2021/11/20 07:35:10;;;;;;;14.70;9.38;;;7.30;99.90;;;;;;5028559;28;20193;-74
2021/11/20 07:37:36;;;;;;;12.98;8.43;;;7.30;99.90;;;;;;5027990;28;20191;-75
2021/11/20 07:40:04;;;;;;;12.50;8.17;;;7.20;99.90;;;;;;5027872;28;20191;-74
2021/11/20 07:42:29;;;;;;;13.60;10.02;;;7.60;99.90;;;;;;5027559;28;20198;-74
2021/11/20 07:44:58;;;;;;;13.40;9.53;;;7.60;99.90;;;;;;5027897;28;20203;-75
2021/11/20 07:47:25;;;;;;;13.15;8.85;;;7.30;99.90;;;;;;5027879;28;20223;-74
2021/11/20 07:49:50;;;;;;;16.23;10.57;;;7.60;99.90;;;;;;5026957;28;20211;-76
2021/11/20 07:52:16;;;;;;;14.30;9.60;;;7.40;99.90;;;;;;5027780;28;20282;-75
2021/11/20 07:54:41;;;;;;;16.43;10.80;;;7.50;99.90;;;;;;5027721;28;20579;-74
2021/11/20 07:57:07;;;;;;;15.17;10.33;;;7.70;99.90;;;;;;5027921;28;20541;-74
2021/11/20 07:59:33;;;;;;;13.48;8.50;;;7.60;99.90;;;;;;5028509;28;20187;-74
2021/11/20 08:01:59;;;;;;;12.40;8.68;;;7.50;99.90;;;;;;5028092;28;20187;-74
2021/11/20 08:04:24;;;;;;;13.07;9.60;;;7.80;99.90;;;;;;5027851;28;20672;-74
2021/11/20 08:06:50;;;;;;;16.30;10.80;;;7.80;99.90;;;;;;5026453;28;20175;-74
2021/11/20 08:09:16;;;;;;;16.60;11.43;;;7.60;99.90;;;;;;5025073;28;20215;-73
2021/11/20 08:11:41;;;;;;;18.23;11.90;;;7.90;99.90;;;;;;5024297;28;20176;-74
2021/11/20 08:14:08;;;;;;;17.03;9.93;;;7.90;99.90;;;;;;5026452;28;20547;-74
2021/11/20 08:16:37;;;;;;;16.35;9.80;;;7.70;99.90;;;;;;5027364;28;20188;-74
2021/11/20 08:19:03;;;;;;;14.35;9.05;;;8.00;99.90;;;;;;5026199;28;20183;-74
2021/11/20 08:21:29;;;;;;;12.30;8.80;;;8.10;99.90;;;;;;5031528;28;20194;-74
2021/11/20 08:23:54;;;;;;;15.13;9.73;;;8.10;99.90;;;;;;5031226;28;20501;-75
2021/11/20 08:26:23;;;;;;;14.10;9.53;;;8.00;99.90;;;;;;5031314;28;20270;-74
2021/11/20 08:28:49;;;;;;;12.80;9.00;;;8.10;99.90;;;;;;5029968;28;20238;-74
2021/11/20 08:31:14;;;;;;;13.83;9.90;;;8.10;99.90;;;;;;5030613;28;20246;-74
2021/11/20 08:33:40;;;;;;;10.80;8.27;;;8.10;99.90;;;;;;5030689;28;20278;-74
2021/11/20 08:36:09;;;;;;;10.83;7.33;;;8.10;99.90;;;;;;5031650;28;20187;-74
2021/11/20 08:38:35;;;;;;;8.68;7.18;;;8.20;99.90;;;;;;5030650;28;20462;-74
2021/11/20 08:41:01;;;;;;;11.77;8.20;;;8.30;99.90;;;;;;5030867;28;20341;-74
2021/11/20 08:43:31;;;;;;;10.00;7.17;;;8.10;99.90;;;;;;5031381;28;20266;-74
2021/11/20 08:46:00;;;;;;;13.25;9.43;;;8.20;99.90;;;;;;5030752;28;20190;-73
2021/11/20 08:48:26;;;;;;;12.05;8.77;;;8.40;99.90;;;;;;5030667;28;20222;-74
2021/11/20 08:50:56;;;;;;;11.15;8.18;;;8.30;99.90;;;;;;5030568;28;20214;-73
2021/11/20 08:53:21;;;;;;;10.90;7.43;;;8.50;99.90;;;;;;5030886;28;20186;-73
2021/11/20 08:55:47;;;;;;;11.70;7.60;;;8.30;99.90;;;;;;5028803;28;20183;-74
2021/11/20 08:58:14;;;;;;;10.73;7.07;;;8.50;99.90;;;;;;5030605;28;20487;-73
2021/11/20 09:00:48;;;;;;;10.82;7.50;;;8.70;99.90;;;;;;5029792;28;20512;-74
2021/11/20 09:03:38;;;;;;;11.60;7.72;;;8.40;99.90;;;;;;5029407;28;20202;-74
2021/11/20 09:06:14;;;;;;;12.23;7.97;;;8.60;99.90;;;;;;5030838;28;20193;-73
2021/11/20 09:08:55;;;;;;;12.95;7.60;;;8.80;99.90;;;;;;5011084;28;20191;-74
2021/11/20 09:11:26;;;;;;;10.73;7.20;;;8.50;99.90;;;;;;5005923;28;20683;-74
2021/11/20 09:13:55;;;;;;;11.52;7.38;;;8.50;99.90;;;;;;5024136;28;20763;-74
2021/11/20 09:16:25;;;;;;;9.65;6.78;;;8.70;99.90;;;;;;5032130;28;20191;-75
2021/11/20 09:18:52;;;;;;;16.58;11.90;;;8.60;99.90;;;;;;5022404;28;20760;-73
2021/11/20 09:21:18;;;;;;;20.30;16.48;;;9.10;99.90;;;;;;5012342;28;20551;-73
2021/11/20 09:23:45;;;;;;;11.40;9.07;;;9.00;99.90;;;;;;5029002;28;20219;-74
2021/11/20 09:26:12;;;;;;;10.65;8.85;;;8.80;99.90;;;;;;5028326;28;20195;-87
2021/11/20 09:28:38;;;;;;;11.45;8.85;;;8.80;99.90;;;;;;5029483;28;20207;-74
2021/11/20 09:31:06;;;;;;;8.20;6.33;;;9.00;99.90;;;;;;5029456;28;20255;-74
2021/11/20 09:33:33;;;;;;;6.72;5.90;;;9.10;99.90;;;;;;5028914;28;20179;-73
2021/11/20 09:35:58;;;;;;;7.00;5.78;;;9.20;99.90;;;;;;5027722;28;20538;-74
2021/11/20 09:38:26;;;;;;;6.27;4.43;;;9.20;99.90;;;;;;5030236;28;20189;-74
2021/11/20 09:41:00;;;;;;;7.43;4.53;;;9.30;99.90;;;;;;5029464;28;20278;-74
2021/11/20 09:43:30;;;;;;;6.60;4.40;;;9.10;99.90;;;;;;5027789;28;20202;-74
2021/11/20 09:46:01;;;;;;;4.97;4.47;;;9.00;99.90;;;;;;5029696;28;20187;-74
2021/11/20 09:48:35;;;;;;;5.75;4.72;;;9.00;99.90;;;;;;5029312;28;20463;-74
2021/11/20 09:51:23;;;;;;;5.57;4.90;;;9.20;99.90;;;;;;5029316;28;20602;-74
2021/11/20 09:53:49;;;;;;;5.60;4.78;;;8.90;99.90;;;;;;5020568;28;20274;-73
2021/11/20 09:56:22;;;;;;;5.65;4.40;;;9.10;99.90;;;;;;5029611;28;20237;-74
2021/11/20 09:58:52;;;;;;;6.03;4.25;;;8.80;99.90;;;;;;5029310;28;20553;-74
2021/11/20 10:01:45;;;;;;;6.03;4.72;;;8.60;99.90;;;;;;5029489;28;20229;-74
2021/11/20 10:04:26;;;;;;;5.85;4.28;;;8.80;99.90;;;;;;5029007;28;20630;-75
2021/11/20 10:07:12;;;;;;;4.68;3.97;;;8.90;99.90;;;;;;5028575;28;20186;-75
2021/11/20 10:09:46;;;;;;;6.65;4.20;;;8.80;99.90;;;;;;5029510;28;20191;-74
2021/11/20 10:12:11;;;;;;;4.07;3.58;;;9.00;99.90;;;;;;5029644;28;20210;-74
2021/11/20 10:14:57;;;;;;;4.23;3.83;;;9.10;99.90;;;;;;5028975;28;20226;-74
2021/11/20 10:17:45;;;;;;;5.07;3.85;;;8.90;99.90;;;;;;5015117;28;20697;-74
2021/11/20 10:20:26;;;;;;;4.53;4.13;;;8.90;99.90;;;;;;5026715;28;20202;-75
2021/11/20 10:22:55;;;;;;;4.78;4.15;;;8.90;99.90;;;;;;5028907;28;20187;-75
2021/11/20 10:25:51;;;;;;;4.60;4.15;;;9.20;99.90;;;;;;5028891;28;20313;-74
2021/11/20 10:28:35;;;;;;;4.88;4.35;;;9.30;99.90;;;;;;4991829;28;20203;-74
2021/11/20 10:31:18;;;;;;;5.07;4.25;;;9.20;99.90;;;;;;5012479;28;20293;-74
2021/11/20 10:34:00;;;;;;;5.25;4.53;;;9.30;99.90;;;;;;5022776;28;20573;-75
2021/11/20 10:36:34;;;;;;;4.95;4.43;;;9.30;99.90;;;;;;5028627;28;20192;-73
2021/11/20 10:39:08;;;;;;;5.30;4.10;;;9.20;99.90;;;;;;5027766;28;20217;-75
2021/11/20 10:41:42;;;;;;;5.57;4.45;;;9.20;99.90;;;;;;5028299;28;20201;-75
2021/11/20 10:44:21;;;;;;;6.22;5.45;;;9.50;99.90;;;;;;5027770;28;20199;-75
2021/11/20 10:46:53;;;;;;;4.35;4.00;;;9.30;99.90;;;;;;5028051;28;20195;-75
2021/11/20 10:49:44;;;;;;;5.60;4.10;;;9.20;99.90;;;;;;5028265;28;20198;-76
2021/11/20 10:52:29;;;;;;;5.22;4.13;;;9.50;99.90;;;;;;5028830;28;20697;-75
2021/11/20 10:55:16;;;;;;;5.93;4.82;;;9.10;99.90;;;;;;5007308;28;20188;-75
2021/11/20 10:57:53;;;;;;;4.47;4.07;;;9.40;99.90;;;;;;5026550;28;21034;-75
2021/11/20 11:00:46;;;;;;;4.60;4.20;;;9.40;99.90;;;;;;5029114;28;20183;-74
2021/11/20 11:03:48;;;;;;;4.20;3.83;;;9.10;99.90;;;;;;5028573;28;20555;-75
2021/11/20 11:06:24;;;;;;;4.03;3.63;;;9.20;99.90;;;;;;5011736;28;20278;-76
2021/11/20 11:09:18;;;;;;;5.90;5.10;;;9.20;99.90;;;;;;5028592;28;20279;-74
2021/11/20 11:11:56;;;;;;;5.40;3.80;;;9.10;99.90;;;;;;5027779;28;20235;-74
2021/11/20 11:14:44;;;;;;;5.53;4.63;;;9.50;99.90;;;;;;5028769;28;20191;-74
2021/11/20 11:17:35;;;;;;;4.00;3.70;;;9.50;99.90;;;;;;5029548;28;20200;-73
2021/11/20 11:20:41;;;;;;;4.45;3.53;;;9.50;99.90;;;;;;5019898;28;20683;-74
2021/11/20 11:23:09;;;;;;;5.25;4.65;;;9.20;99.90;;;;;;5017101;28;20209;-74
2021/11/20 11:25:45;;;;;;;6.15;5.55;;;9.70;99.90;;;;;;5027890;28;20191;-72
2021/11/20 11:28:43;;;;;;;4.95;4.07;;;9.70;99.90;;;;;;5026199;28;20202;-73
2021/11/20 11:31:14;;;;;;;4.53;4.13;;;9.60;99.90;;;;;;5034868;28;20364;-73
2021/11/20 11:33:47;;;;;;;4.97;4.20;;;9.60;99.90;;;;;;5029212;28;20190;-73
2021/11/20 11:36:32;;;;;;;5.95;5.00;;;9.60;99.90;;;;;;5025953;28;20222;-73
2021/11/20 11:39:27;;;;;;;5.82;5.22;;;9.50;99.90;;;;;;5016835;28;20187;-73
2021/11/20 11:42:19;;;;;;;7.80;4.85;;;9.50;99.90;;;;;;5028046;28;20210;-74
2021/11/20 11:45:04;;;;;;;6.07;5.57;;;9.40;99.90;;;;;;5028104;28;20534;-74
2021/11/20 11:47:48;;;;;;;5.63;4.88;;;9.50;99.90;;;;;;5035792;28;20560;-73
2021/11/20 11:50:29;;;;;;;5.90;5.30;;;9.40;99.90;;;;;;5027653;28;20199;-74
2021/11/20 11:53:29;;;;;;;6.10;5.13;;;9.70;99.90;;;;;;5027785;28;20186;-74
2021/11/20 11:55:58;;;;;;;5.88;5.38;;;10.00;99.90;;;;;;5030974;28;20584;-74
2021/11/20 11:58:35;;;;;;;6.68;5.80;;;10.00;99.90;;;;;;5028596;28;20183;-73
2021/11/20 12:01:15;;;;;;;5.47;4.95;;;9.70;99.90;;;;;;5031798;28;20717;-75
2021/11/20 12:03:47;;;;;;;6.65;5.93;;;9.90;99.90;;;;;;5031959;28;20236;-73
2021/11/20 12:06:28;;;;;;;6.28;5.68;;;9.70;99.90;;;;;;5030069;28;20576;-72
2021/11/20 12:09:04;;;;;;;8.52;6.18;;;9.90;99.90;;;;;;5019447;28;20187;-72
2021/11/20 12:11:35;;;;;;;6.40;4.80;;;9.70;99.90;;;;;;5031858;28;20750;-73
2021/11/20 12:14:16;;;;;;;6.75;6.05;;;9.80;99.90;;;;;;5031939;28;20199;-73
2021/11/20 12:16:44;;;;;;;7.40;5.68;;;9.70;99.90;;;;;;5031008;28;20234;-73
2021/11/20 12:19:34;;;;;;;5.97;5.18;;;9.80;99.90;;;;;;5030868;28;20195;-73
2021/11/20 12:22:11;;;;;;;6.30;5.70;;;9.80;99.90;;;;;;5031918;28;20183;-73
2021/11/20 12:24:55;;;;;;;6.30;5.70;;;10.00;99.90;;;;;;5030858;28;20242;-73
2021/11/20 12:27:48;;;;;;;7.63;6.93;;;9.90;99.90;;;;;;5031328;28;20202;-73
2021/11/20 12:30:51;;;;;;;8.35;6.70;;;10.20;99.90;;;;;;5020110;28;20764;-74
2021/11/20 12:33:47;;;;;;;6.80;5.78;;;10.00;99.90;;;;;;5030228;28;20198;-74
2021/11/20 12:37:14;;;;;;;6.25;5.38;;;9.90;99.90;;;;;;5031262;28;20536;-74
2021/11/20 12:39:44;;;;;;;8.07;6.55;;;9.70;99.90;;;;;;4950366;29;20649;-74
2021/11/20 12:42:28;;;;;;;6.10;5.60;;;10.00;99.90;;;;;;5007064;28;20195;-74
2021/11/20 12:45:20;;;;;;;6.35;5.75;;;9.90;99.90;;;;;;5033522;28;20202;-73
2021/11/20 12:48:15;;;;;;;6.97;6.28;;;9.80;99.90;;;;;;5011400;28;20223;-73
2021/11/20 12:51:05;;;;;;;5.72;5.20;;;9.60;99.90;;;;;;5027823;28;20306;-74
2021/11/20 12:53:52;;;;;;;6.55;5.93;;;9.70;99.90;;;;;;5030654;28;20190;-74
2021/11/20 12:56:18;;;;;;;6.65;5.85;;;9.50;99.90;;;;;;5031980;28;20310;-74
2021/11/20 12:58:57;;;;;;;8.10;7.30;;;9.40;99.90;;;;;;5032173;28;20688;-74
2021/11/20 13:01:31;;;;;;;9.27;8.20;;;9.70;99.90;;;;;;5030485;28;20221;-75
2021/11/20 13:04:08;;;;;;;6.97;6.28;;;9.60;99.90;;;;;;5030178;28;20199;-74
2021/11/20 13:06:51;;;;;;;6.85;6.15;;;9.50;99.90;;;;;;5029917;28;20183;-74
2021/11/20 13:09:26;;;;;;;7.80;6.95;;;9.60;99.90;;;;;;5030554;28;20230;-74